Time;durP1;ratioP1;P1;durP2;ratioP2;P2;SDS_P1;SDS_P2;PMS_P1;PMS_P2;Temp;Humidity;BMP_temperature;BMP_pressure;BME280_temperature;BME280_humidity;BME280_pressure;Samples;Min_cycle;Max_cycle;Signal;HPM_P1;HPM_P2
2021/08/02 00:01:33;;;;;;;1.65;1.20;;;;;;;;;;5074496;28;20206;-46
2021/08/02 00:03:59;;;;;;;2.25;1.10;;;;;;;;;;5107947;28;20216;-46
2021/08/02 00:06:28;;;;;;;0.93;0.93;;;;;;;;;;5105145;28;20222;-46
2021/08/02 00:09:00;;;;;;;1.08;1.08;;;;;;;;;;5106008;28;20607;-46
2021/08/02 00:11:29;;;;;;;0.90;0.90;;;;;;;;;;5074685;28;20170;-46
2021/08/02 00:13:58;;;;;;;1.23;1.13;;;;;;;;;;5081926;28;20189;-46
2021/08/02 00:16:24;;;;;;;0.98;0.98;;;;;;;;;;5094690;28;20235;-46
2021/08/02 00:18:50;;;;;;;1.20;1.10;;;;;;;;;;5110575;28;20560;-46
2021/08/02 00:21:16;;;;;;;1.48;1.30;;;;;;;;;;5115042;28;20169;-46
2021/08/02 00:23:42;;;;;;;1.35;1.02;;;;;;;;;;5103874;28;20193;-46
2021/08/02 00:26:08;;;;;;;2.65;1.00;;;;;;;;;;5093756;28;20189;-46
2021/08/02 00:28:34;;;;;;;1.45;1.00;;;;;;;;;;5089309;28;20227;-46
2021/08/02 00:31:00;;;;;;;1.05;1.05;;;;;;;;;;5074336;28;20185;-46
2021/08/02 00:33:26;;;;;;;3.72;1.00;;;;;;;;;;5077682;28;20171;-46
2021/08/02 00:35:56;;;;;;;1.00;1.00;;;;;;;;;;5114832;28;20213;-46
2021/08/02 00:38:25;;;;;;;1.58;1.10;;;;;;;;;;5106052;28;20572;-46
2021/08/02 00:41:00;;;;;;;1.20;1.00;;;;;;;;;;5095515;28;20439;-46
2021/08/02 00:43:33;;;;;;;2.10;1.20;;;;;;;;;;5098512;28;20196;-46
2021/08/02 00:45:59;;;;;;;2.50;1.17;;;;;;;;;;5089758;28;20262;-46
2021/08/02 00:48:28;;;;;;;1.00;1.00;;;;;;;;;;5077623;28;20166;-46
2021/08/02 00:50:58;;;;;;;1.38;0.90;;;;;;;;;;5086038;28;20247;-46
2021/08/02 00:53:27;;;;;;;1.33;1.20;;;;;;;;;;5097405;28;20189;-46
2021/08/02 00:55:54;;;;;;;2.03;1.10;;;;;;;;;;5098318;28;20181;-46
2021/08/02 00:58:21;;;;;;;1.52;0.90;;;;;;;;;;5097604;28;20299;-46
2021/08/02 01:00:48;;;;;;;1.00;0.90;;;;;;;;;;5091848;28;20620;-46
2021/08/02 01:03:16;;;;;;;0.82;0.82;;;;;;;;;;5077870;28;20827;-46
2021/08/02 01:05:43;;;;;;;1.27;1.10;;;;;;;;;;5088238;28;20181;-46
2021/08/02 01:08:13;;;;;;;1.35;1.00;;;;;;;;;;5098093;28;20271;-46
2021/08/02 01:10:46;;;;;;;2.13;1.20;;;;;;;;;;5104109;28;20185;-46
2021/08/02 01:13:13;;;;;;;1.00;1.00;;;;;;;;;;5080128;28;20166;-46
2021/08/02 01:15:45;;;;;;;2.92;1.20;;;;;;;;;;5090653;28;20224;-46
2021/08/02 01:18:12;;;;;;;1.13;1.10;;;;;;;;;;5076805;28;20194;-46
2021/08/02 01:20:42;;;;;;;2.65;1.10;;;;;;;;;;5087727;28;20177;-46
2021/08/02 01:23:09;;;;;;;0.95;0.95;;;;;;;;;;5103248;28;20177;-47
2021/08/02 01:25:38;;;;;;;0.88;0.88;;;;;;;;;;5104260;28;20446;-46
2021/08/02 01:28:13;;;;;;;1.15;1.08;;;;;;;;;;5096602;28;20181;-46
2021/08/02 01:30:40;;;;;;;1.05;1.00;;;;;;;;;;5086277;28;20205;-46
2021/08/02 01:33:06;;;;;;;1.90;1.20;;;;;;;;;;5097478;28;20454;-46
2021/08/02 01:35:33;;;;;;;1.52;1.17;;;;;;;;;;5095697;28;20184;-46
2021/08/02 01:37:59;;;;;;;1.42;1.08;;;;;;;;;;5105353;28;20177;-46
2021/08/02 01:40:26;;;;;;;1.98;1.42;;;;;;;;;;5097410;28;20181;-46
2021/08/02 01:42:52;;;;;;;2.38;1.23;;;;;;;;;;5097484;28;20174;-46
2021/08/02 01:45:18;;;;;;;3.85;1.40;;;;;;;;;;5097065;28;20181;-46
2021/08/02 01:47:53;;;;;;;1.00;1.00;;;;;;;;;;5096614;28;20242;-46
2021/08/02 01:50:32;;;;;;;1.40;1.00;;;;;;;;;;5080566;28;20237;-46
2021/08/02 01:53:06;;;;;;;3.33;1.45;;;;;;;;;;5093273;28;20188;-46
2021/08/02 01:55:32;;;;;;;1.30;1.20;;;;;;;;;;5102202;28;20176;-46
2021/08/02 01:58:00;;;;;;;1.95;1.30;;;;;;;;;;5094680;28;20190;-46
2021/08/02 02:00:28;;;;;;;1.40;1.30;;;;;;;;;;5076761;28;20162;-46
2021/08/02 02:03:03;;;;;;;2.75;1.40;;;;;;;;;;5088302;28;20206;-46
2021/08/02 02:05:32;;;;;;;1.88;1.30;;;;;;;;;;5097058;28;20174;-46
2021/08/02 02:08:16;;;;;;;1.92;1.48;;;;;;;;;;5111087;28;20220;-46
2021/08/02 02:10:46;;;;;;;2.22;1.42;;;;;;;;;;5087168;28;20193;-46
2021/08/02 02:13:16;;;;;;;4.30;1.70;;;;;;;;;;5098605;28;20307;-46
2021/08/02 02:15:45;;;;;;;5.20;1.73;;;;;;;;;;5095637;28;20581;-46
2021/08/02 02:18:11;;;;;;;2.25;1.45;;;;;;;;;;5095965;28;20311;-46
2021/08/02 02:20:37;;;;;;;4.93;1.90;;;;;;;;;;5096559;28;20185;-46
2021/08/02 02:23:03;;;;;;;3.08;1.73;;;;;;;;;;5109848;28;20178;-46
2021/08/02 02:25:30;;;;;;;2.72;1.83;;;;;;;;;;5096427;28;20281;-46
2021/08/02 02:27:56;;;;;;;6.07;2.38;;;;;;;;;;5095373;28;20177;-46
2021/08/02 02:30:22;;;;;;;4.00;1.90;;;;;;;;;;5090605;28;20297;-46
2021/08/02 02:32:50;;;;;;;3.63;2.10;;;;;;;;;;5096438;28;20173;-46
2021/08/02 02:35:17;;;;;;;3.25;1.80;;;;;;;;;;5103973;28;20181;-46
2021/08/02 02:37:44;;;;;;;4.55;1.63;;;;;;;;;;5113217;28;20181;-46
2021/08/02 02:40:10;;;;;;;3.70;2.00;;;;;;;;;;5096140;28;20182;-46
2021/08/02 02:42:37;;;;;;;4.30;1.67;;;;;;;;;;5095745;28;20180;-46
2021/08/02 02:45:03;;;;;;;5.03;2.25;;;;;;;;;;5079366;28;20183;-46
2021/08/02 02:47:31;;;;;;;5.40;2.63;;;;;;;;;;5107193;28;20181;-46
2021/08/02 02:49:57;;;;;;;5.25;1.98;;;;;;;;;;5115821;28;20563;-46
2021/08/02 02:52:24;;;;;;;3.28;2.17;;;;;;;;;;5109399;28;20257;-46
2021/08/02 02:54:50;;;;;;;2.40;2.13;;;;;;;;;;5095944;28;20181;-46
2021/08/02 02:57:16;;;;;;;2.15;1.70;;;;;;;;;;5082813;28;20183;-46
2021/08/02 02:59:42;;;;;;;3.10;2.15;;;;;;;;;;5091461;28;20185;-46
2021/08/02 03:02:08;;;;;;;2.78;1.52;;;;;;;;;;5095656;28;20285;-46
2021/08/02 03:04:38;;;;;;;2.65;1.70;;;;;;;;;;5091177;28;20257;-46
2021/08/02 03:07:05;;;;;;;5.57;2.22;;;;;;;;;;5098724;28;20205;-46
2021/08/02 03:09:35;;;;;;;5.95;2.33;;;;;;;;;;5099095;28;20243;-46
2021/08/02 03:12:01;;;;;;;4.00;2.08;;;;;;;;;;5093930;28;20412;-46
2021/08/02 03:14:27;;;;;;;4.35;1.98;;;;;;;;;;5083801;28;20174;-46
2021/08/02 03:16:54;;;;;;;4.10;2.25;;;;;;;;;;5075279;28;20166;-46
2021/08/02 03:19:19;;;;;;;6.13;2.58;;;;;;;;;;5095236;28;20182;-46
2021/08/02 03:21:45;;;;;;;7.32;2.33;;;;;;;;;;5097143;28;20177;-46
2021/08/02 03:24:13;;;;;;;4.68;1.90;;;;;;;;;;5096955;28;20198;-46
2021/08/02 03:26:44;;;;;;;4.00;1.92;;;;;;;;;;5095465;28;20230;-46
2021/08/02 03:29:36;;;;;;;5.00;2.25;;;;;;;;;;5094825;28;20273;-46
2021/08/02 03:32:04;;;;;;;4.80;1.88;;;;;;;;;;5086374;28;20635;-46
2021/08/02 03:34:32;;;;;;;2.60;1.80;;;;;;;;;;5076203;28;20462;-46
2021/08/02 03:36:59;;;;;;;2.20;1.67;;;;;;;;;;5095691;28;20181;-46
2021/08/02 03:39:26;;;;;;;4.85;2.08;;;;;;;;;;5085411;28;20192;-46
2021/08/02 03:41:52;;;;;;;5.57;2.13;;;;;;;;;;5095200;28;20178;-46
2021/08/02 03:44:19;;;;;;;3.08;1.67;;;;;;;;;;5095035;28;20185;-46
2021/08/02 03:46:45;;;;;;;3.95;2.00;;;;;;;;;;5095061;28;20174;-46
2021/08/02 03:49:11;;;;;;;3.40;1.92;;;;;;;;;;5093843;28;20193;-46
2021/08/02 03:51:47;;;;;;;4.78;1.98;;;;;;;;;;5094468;28;20169;-46
2021/08/02 03:54:14;;;;;;;2.63;2.00;;;;;;;;;;5097512;28;20174;-46
2021/08/02 03:56:42;;;;;;;2.35;1.77;;;;;;;;;;5087463;28;20175;-46
2021/08/02 03:59:07;;;;;;;4.35;2.05;;;;;;;;;;5085451;28;20182;-46
2021/08/02 04:01:43;;;;;;;4.88;2.22;;;;;;;;;;5094630;28;20202;-46
2021/08/02 04:04:10;;;;;;;12.48;4.28;;;;;;;;;;5092067;28;20179;-46
2021/08/02 04:06:36;;;;;;;20.83;4.47;;;;;;;;;;5081635;28;20170;-46
2021/08/02 04:09:04;;;;;;;12.00;4.68;;;;;;;;;;5106422;28;20568;-46
2021/08/02 04:11:30;;;;;;;14.43;4.82;;;;;;;;;;5094767;28;20170;-46
2021/08/02 04:13:56;;;;;;;17.60;5.22;;;;;;;;;;5090631;28;20869;-46
2021/08/02 04:16:22;;;;;;;16.67;5.50;;;;;;;;;;5094198;28;20174;-46
2021/08/02 04:18:48;;;;;;;26.13;7.50;;;;;;;;;;5094175;28;20420;-46
2021/08/02 04:21:14;;;;;;;36.47;8.88;;;;;;;;;;5094673;28;20181;-46
2021/08/02 04:23:40;;;;;;;25.45;8.05;;;;;;;;;;5103607;28;20213;-46
2021/08/02 04:26:08;;;;;;;30.83;8.68;;;;;;;;;;5096103;28;20228;-46
2021/08/02 04:28:34;;;;;;;32.60;9.35;;;;;;;;;;5093831;28;20184;-46
2021/08/02 04:31:00;;;;;;;29.65;9.07;;;;;;;;;;5094792;28;20178;-46
2021/08/02 04:33:26;;;;;;;32.03;8.95;;;;;;;;;;5098406;28;20200;-46
2021/08/02 04:35:53;;;;;;;32.10;9.55;;;;;;;;;;5103831;28;20208;-46
2021/08/02 04:38:19;;;;;;;29.25;8.45;;;;;;;;;;5100090;28;20165;-46
2021/08/02 04:40:45;;;;;;;33.10;9.73;;;;;;;;;;5100456;28;20531;-46
2021/08/02 04:43:11;;;;;;;25.08;7.57;;;;;;;;;;5093358;28;20185;-46
2021/08/02 04:45:37;;;;;;;29.65;8.63;;;;;;;;;;5078294;28;20469;-46
2021/08/02 04:48:03;;;;;;;30.90;8.32;;;;;;;;;;5099412;28;20276;-46
2021/08/02 04:50:29;;;;;;;32.17;9.02;;;;;;;;;;5114640;28;20230;-46
2021/08/02 04:52:55;;;;;;;27.67;8.38;;;;;;;;;;5107436;28;20350;-46
2021/08/02 04:55:21;;;;;;;26.00;8.02;;;;;;;;;;5103242;28;20210;-46
2021/08/02 04:57:47;;;;;;;25.00;7.70;;;;;;;;;;5093812;28;20241;-46
2021/08/02 05:00:13;;;;;;;24.05;8.00;;;;;;;;;;5075708;28;20187;-46
2021/08/02 05:02:39;;;;;;;26.70;7.50;;;;;;;;;;5074058;28;20178;-46
2021/08/02 05:05:06;;;;;;;26.80;8.07;;;;;;;;;;5090254;28;20189;-46
2021/08/02 05:07:32;;;;;;;17.92;6.15;;;;;;;;;;5103205;28;20213;-46
2021/08/02 05:09:58;;;;;;;14.35;5.97;;;;;;;;;;5089045;28;20234;-46
2021/08/02 05:12:24;;;;;;;22.33;6.65;;;;;;;;;;5075651;28;20253;-46
2021/08/02 05:14:50;;;;;;;19.63;6.97;;;;;;;;;;5086477;28;20568;-46
2021/08/02 05:17:16;;;;;;;20.35;6.82;;;;;;;;;;5078468;28;20278;-46
2021/08/02 05:19:42;;;;;;;26.10;7.38;;;;;;;;;;5075201;28;20561;-46
2021/08/02 05:22:08;;;;;;;19.20;6.85;;;;;;;;;;5094360;28;20253;-46
2021/08/02 05:24:34;;;;;;;23.77;6.30;;;;;;;;;;5105447;28;20212;-46
2021/08/02 05:27:01;;;;;;;15.38;5.57;;;;;;;;;;5094785;28;20620;-47
2021/08/02 05:29:27;;;;;;;12.18;5.65;;;;;;;;;;5085799;28;20607;-46
2021/08/02 05:31:53;;;;;;;12.68;4.70;;;;;;;;;;5092338;28;20220;-47
2021/08/02 05:34:19;;;;;;;10.48;4.57;;;;;;;;;;5097564;28;20162;-47
2021/08/02 05:36:45;;;;;;;15.98;5.20;;;;;;;;;;5097264;28;20568;-47
2021/08/02 05:39:11;;;;;;;13.52;5.40;;;;;;;;;;5109268;28;20212;-47
2021/08/02 05:41:37;;;;;;;15.13;5.35;;;;;;;;;;5080611;28;20174;-47
2021/08/02 05:44:03;;;;;;;13.27;5.30;;;;;;;;;;5085068;28;20180;-47
2021/08/02 05:46:29;;;;;;;13.90;4.40;;;;;;;;;;5097109;28;20671;-47
2021/08/02 05:48:55;;;;;;;10.38;4.13;;;;;;;;;;5104969;28;20193;-47
2021/08/02 05:51:21;;;;;;;14.38;4.32;;;;;;;;;;5104472;28;20231;-47
2021/08/02 05:53:47;;;;;;;12.52;5.20;;;;;;;;;;5108887;28;20580;-47
2021/08/02 05:56:17;;;;;;;9.07;4.03;;;;;;;;;;5096250;28;20182;-47
2021/08/02 05:58:43;;;;;;;9.15;4.13;;;;;;;;;;5091220;28;20553;-47
2021/08/02 06:01:09;;;;;;;10.38;4.65;;;;;;;;;;5076914;28;20273;-47
2021/08/02 06:03:35;;;;;;;10.50;4.28;;;;;;;;;;5076544;28;20264;-47
2021/08/02 06:06:02;;;;;;;10.40;4.43;;;;;;;;;;5090042;28;20181;-47
2021/08/02 06:08:28;;;;;;;8.90;4.28;;;;;;;;;;5105023;28;20181;-47
2021/08/02 06:10:54;;;;;;;9.45;4.50;;;;;;;;;;5100557;28;20174;-47
2021/08/02 06:13:20;;;;;;;9.48;4.03;;;;;;;;;;5094571;28;20191;-47
2021/08/02 06:15:46;;;;;;;6.05;3.53;;;;;;;;;;5076313;28;20163;-47
2021/08/02 06:18:12;;;;;;;10.65;3.97;;;;;;;;;;5077068;28;20454;-47
2021/08/02 06:20:38;;;;;;;12.10;4.53;;;;;;;;;;5080835;28;20177;-47
2021/08/02 06:23:04;;;;;;;12.68;4.32;;;;;;;;;;5111734;28;20583;-47
2021/08/02 06:25:30;;;;;;;5.53;3.42;;;;;;;;;;5096484;28;20516;-47
2021/08/02 06:27:56;;;;;;;6.25;3.30;;;;;;;;;;5096022;28;20224;-47
2021/08/02 06:30:24;;;;;;;7.60;3.40;;;;;;;;;;5096248;28;20612;-47
2021/08/02 06:32:50;;;;;;;9.02;3.30;;;;;;;;;;5096275;28;20158;-47
2021/08/02 06:35:16;;;;;;;7.40;3.20;;;;;;;;;;5090188;28;20184;-47
2021/08/02 06:37:42;;;;;;;7.15;3.10;;;;;;;;;;5108070;28;20178;-47
2021/08/02 06:40:12;;;;;;;5.85;3.15;;;;;;;;;;5087591;28;20178;-47
2021/08/02 06:42:38;;;;;;;7.68;3.42;;;;;;;;;;5076086;28;20178;-47
2021/08/02 06:45:05;;;;;;;10.82;2.97;;;;;;;;;;5092525;28;20184;-47
2021/08/02 06:47:31;;;;;;;8.50;2.90;;;;;;;;;;5095246;28;20189;-47
2021/08/02 06:49:57;;;;;;;5.28;3.00;;;;;;;;;;5101522;28;20434;-47
2021/08/02 06:52:23;;;;;;;6.03;3.17;;;;;;;;;;5102647;28;20178;-47
2021/08/02 06:54:49;;;;;;;4.60;3.08;;;;;;;;;;5107311;28;20186;-47
2021/08/02 06:57:15;;;;;;;7.97;3.03;;;;;;;;;;5095614;28;20990;-48
2021/08/02 06:59:41;;;;;;;5.03;2.90;;;;;;;;;;5082270;28;20516;-47
2021/08/02 07:02:07;;;;;;;4.05;2.78;;;;;;;;;;5077692;28;20167;-46
2021/08/02 07:04:33;;;;;;;4.85;2.83;;;;;;;;;;5108520;28;20243;-47
2021/08/02 07:06:59;;;;;;;3.78;2.80;;;;;;;;;;5095353;28;20537;-47
2021/08/02 07:09:25;;;;;;;3.28;2.70;;;;;;;;;;5094163;28;20643;-47
2021/08/02 07:11:51;;;;;;;4.82;2.90;;;;;;;;;;5095586;28;20172;-47
2021/08/02 07:14:17;;;;;;;3.20;2.30;;;;;;;;;;5095198;28;20175;-47
2021/08/02 07:16:43;;;;;;;5.05;2.95;;;;;;;;;;5095199;28;20177;-47
2021/08/02 07:19:09;;;;;;;9.85;2.58;;;;;;;;;;5094911;28;20189;-46
2021/08/02 07:21:35;;;;;;;3.33;2.90;;;;;;;;;;5095553;28;20174;-46
2021/08/02 07:24:01;;;;;;;5.28;2.78;;;;;;;;;;5107509;28;20288;-46
2021/08/02 07:26:27;;;;;;;4.55;3.10;;;;;;;;;;5080253;28;20248;-46
2021/08/02 07:28:58;;;;;;;5.55;2.90;;;;;;;;;;5088039;28;20190;-46
2021/08/02 07:31:24;;;;;;;5.93;2.65;;;;;;;;;;5084216;28;20158;-46
2021/08/02 07:33:50;;;;;;;3.88;2.78;;;;;;;;;;5101642;28;20170;-46
2021/08/02 07:36:16;;;;;;;4.63;2.38;;;;;;;;;;5093302;28;20212;-45
2021/08/02 07:38:44;;;;;;;4.70;2.63;;;;;;;;;;5088596;28;20265;-46
2021/08/02 07:41:10;;;;;;;3.53;2.53;;;;;;;;;;5093768;28;20170;-46
2021/08/02 07:43:36;;;;;;;3.70;2.78;;;;;;;;;;5093447;28;20224;-46
2021/08/02 07:46:02;;;;;;;3.78;2.17;;;;;;;;;;5081123;28;20518;-45
2021/08/02 07:48:28;;;;;;;3.17;2.03;;;;;;;;;;5106699;28;20184;-46
2021/08/02 07:50:54;;;;;;;2.72;2.53;;;;;;;;;;5115101;28;20192;-45
2021/08/02 07:53:20;;;;;;;3.30;2.60;;;;;;;;;;5103380;28;20460;-46
2021/08/02 07:55:46;;;;;;;2.92;2.63;;;;;;;;;;5080261;28;20178;-46
2021/08/02 07:58:12;;;;;;;3.88;2.72;;;;;;;;;;5074732;28;20189;-46
2021/08/02 08:00:39;;;;;;;2.70;2.50;;;;;;;;;;5092886;28;20860;-46
2021/08/02 08:03:05;;;;;;;4.22;2.80;;;;;;;;;;5108061;28;20219;-46
2021/08/02 08:05:31;;;;;;;2.78;2.47;;;;;;;;;;5111381;28;20552;-46
2021/08/02 08:07:57;;;;;;;4.25;2.63;;;;;;;;;;5100046;28;20188;-46
2021/08/02 08:10:24;;;;;;;5.10;2.28;;;;;;;;;;5098620;28;20201;-46
2021/08/02 08:12:50;;;;;;;3.83;2.72;;;;;;;;;;5082827;28;20186;-46
2021/08/02 08:15:17;;;;;;;2.85;2.53;;;;;;;;;;5094050;28;20170;-46
2021/08/02 08:17:43;;;;;;;3.70;3.22;;;;;;;;;;5094061;28;20181;-46
2021/08/02 08:20:10;;;;;;;5.72;2.70;;;;;;;;;;5106436;28;20184;-45
2021/08/02 08:22:37;;;;;;;3.15;2.83;;;;;;;;;;5113412;28;20177;-45
2021/08/02 08:25:03;;;;;;;2.88;2.58;;;;;;;;;;5094856;28;20220;-45
2021/08/02 08:27:29;;;;;;;2.67;2.47;;;;;;;;;;5093226;28;20182;-45
2021/08/02 08:29:55;;;;;;;2.55;2.35;;;;;;;;;;5079172;28;20290;-46
2021/08/02 08:32:21;;;;;;;2.60;2.40;;;;;;;;;;5082606;28;20216;-46
2021/08/02 08:34:47;;;;;;;3.65;2.30;;;;;;;;;;5114849;28;20207;-45
2021/08/02 08:37:13;;;;;;;2.75;2.40;;;;;;;;;;5113029;28;20169;-45
2021/08/02 08:39:39;;;;;;;2.33;2.08;;;;;;;;;;5097974;28;20247;-45
2021/08/02 08:42:06;;;;;;;3.70;3.13;;;;;;;;;;5094145;28;20166;-45
2021/08/02 08:44:33;;;;;;;3.67;2.50;;;;;;;;;;5094475;28;20186;-46
2021/08/02 08:46:59;;;;;;;2.45;2.25;;;;;;;;;;5073867;28;20202;-46
2021/08/02 08:49:25;;;;;;;3.38;3.08;;;;;;;;;;5082581;28;20198;-46
2021/08/02 08:51:53;;;;;;;4.72;2.63;;;;;;;;;;5095457;28;20199;-46
2021/08/02 08:54:19;;;;;;;3.00;2.70;;;;;;;;;;5106764;28;20188;-46
2021/08/02 08:56:45;;;;;;;3.25;2.50;;;;;;;;;;5094138;28;20166;-46
2021/08/02 08:59:16;;;;;;;2.63;2.22;;;;;;;;;;5084642;28;20187;-46
2021/08/02 09:01:42;;;;;;;2.97;2.30;;;;;;;;;;5079320;28;20818;-45
2021/08/02 09:04:08;;;;;;;3.08;2.50;;;;;;;;;;5078449;28;20629;-46
2021/08/02 09:06:47;;;;;;;2.10;2.00;;;;;;;;;;5089406;28;20177;-46
2021/08/02 09:09:23;;;;;;;2.22;2.00;;;;;;;;;;5109798;28;20245;-46
2021/08/02 09:11:49;;;;;;;2.70;2.50;;;;;;;;;;5082958;28;20549;-46
2021/08/02 09:14:17;;;;;;;2.63;2.42;;;;;;;;;;5087168;28;20660;-45
2021/08/02 09:16:52;;;;;;;2.40;2.20;;;;;;;;;;5100010;28;20234;-45
2021/08/02 09:19:18;;;;;;;2.10;2.00;;;;;;;;;;5097862;28;20249;-45
2021/08/02 09:21:45;;;;;;;2.72;2.30;;;;;;;;;;5096210;28;20307;-46
2021/08/02 09:24:11;;;;;;;2.65;2.10;;;;;;;;;;5110105;28;20212;-46
2021/08/02 09:26:39;;;;;;;2.35;2.15;;;;;;;;;;5097867;28;20170;-46
2021/08/02 09:29:06;;;;;;;2.10;2.00;;;;;;;;;;5088913;28;20187;-46
2021/08/02 09:31:39;;;;;;;1.80;1.70;;;;;;;;;;5077410;28;20177;-46
2021/08/02 09:34:09;;;;;;;2.13;2.03;;;;;;;;;;5083267;28;20201;-46
2021/08/02 09:36:38;;;;;;;3.08;1.98;;;;;;;;;;5096933;28;20190;-46
2021/08/02 09:39:05;;;;;;;3.50;1.80;;;;;;;;;;5107985;28;20192;-45
2021/08/02 09:41:31;;;;;;;3.75;1.70;;;;;;;;;;5097467;28;20177;-47
2021/08/02 09:43:58;;;;;;;2.83;1.80;;;;;;;;;;5090243;28;20174;-46
2021/08/02 09:46:24;;;;;;;4.80;1.65;;;;;;;;;;5076611;28;20495;-46
2021/08/02 09:48:50;;;;;;;4.95;2.00;;;;;;;;;;5089917;28;20200;-46
2021/08/02 09:51:17;;;;;;;1.90;1.60;;;;;;;;;;5117194;28;20177;-46
2021/08/02 09:53:43;;;;;;;3.05;1.60;;;;;;;;;;5105062;28;20467;-46
2021/08/02 09:56:13;;;;;;;2.00;1.70;;;;;;;;;;5080040;28;20175;-46
2021/08/02 09:58:43;;;;;;;3.70;1.40;;;;;;;;;;5080093;28;20790;-46
2021/08/02 10:01:12;;;;;;;1.52;1.42;;;;;;;;;;5096791;28;20178;-46
2021/08/02 10:03:39;;;;;;;4.03;1.60;;;;;;;;;;5097101;28;20636;-46
2021/08/02 10:06:05;;;;;;;2.05;1.52;;;;;;;;;;5096921;28;20545;-46
2021/08/02 10:08:33;;;;;;;1.98;1.58;;;;;;;;;;5103595;28;20800;-46
2021/08/02 10:10:59;;;;;;;2.33;1.70;;;;;;;;;;5096784;28;20177;-46
2021/08/02 10:13:27;;;;;;;1.40;1.30;;;;;;;;;;5087977;28;20221;-46
2021/08/02 10:15:55;;;;;;;2.92;1.70;;;;;;;;;;5096732;28;20174;-46
2021/08/02 10:18:22;;;;;;;2.65;1.50;;;;;;;;;;5095987;28;20227;-45
2021/08/02 10:20:49;;;;;;;1.52;1.30;;;;;;;;;;5096807;28;20193;-46
2021/08/02 10:23:23;;;;;;;1.63;1.52;;;;;;;;;;5102494;28;20169;-46
2021/08/02 10:25:49;;;;;;;1.60;1.50;;;;;;;;;;5102242;28;20197;-46
2021/08/02 10:28:16;;;;;;;1.60;1.50;;;;;;;;;;5094605;28;20165;-46
2021/08/02 10:30:43;;;;;;;1.48;1.38;;;;;;;;;;5077268;28;20249;-45
2021/08/02 10:33:09;;;;;;;1.33;1.25;;;;;;;;;;5086574;28;20253;-46
2021/08/02 10:35:35;;;;;;;2.33;1.50;;;;;;;;;;5094902;28;20732;-46
2021/08/02 10:38:03;;;;;;;1.30;1.20;;;;;;;;;;5097977;28;20537;-46
2021/08/02 10:40:29;;;;;;;1.30;1.20;;;;;;;;;;5103272;28;20238;-45
2021/08/02 10:42:55;;;;;;;1.90;1.60;;;;;;;;;;5094537;28;20177;-45
2021/08/02 10:45:29;;;;;;;1.65;1.55;;;;;;;;;;5075952;28;20178;-46
2021/08/02 10:47:55;;;;;;;2.30;1.58;;;;;;;;;;5075487;28;20198;-46
2021/08/02 10:50:25;;;;;;;2.20;1.55;;;;;;;;;;5078003;28;20202;-46
2021/08/02 10:52:52;;;;;;;1.52;1.42;;;;;;;;;;5084779;28;20174;-46
2021/08/02 10:55:18;;;;;;;1.83;1.52;;;;;;;;;;5104135;28;20268;-46
2021/08/02 10:57:44;;;;;;;1.75;1.40;;;;;;;;;;5092029;28;20185;-46
2021/08/02 11:00:20;;;;;;;1.63;1.52;;;;;;;;;;5096059;28;20182;-46
2021/08/02 11:02:53;;;;;;;3.05;1.35;;;;;;;;;;5093315;28;20553;-46
2021/08/02 11:05:20;;;;;;;1.40;1.30;;;;;;;;;;5078781;28;20189;-46
2021/08/02 11:07:47;;;;;;;2.13;1.65;;;;;;;;;;5103809;28;20188;-46
2021/08/02 11:10:15;;;;;;;2.42;2.03;;;;;;;;;;5095628;28;20186;-46
2021/08/02 11:12:44;;;;;;;2.20;1.73;;;;;;;;;;5095823;28;20154;-45
2021/08/02 11:15:11;;;;;;;2.33;1.98;;;;;;;;;;5083640;28;20202;-45
2021/08/02 11:17:40;;;;;;;1.75;1.65;;;;;;;;;;5074962;28;20167;-45
2021/08/02 11:20:08;;;;;;;2.05;1.75;;;;;;;;;;5095635;28;20174;-46
2021/08/02 11:22:37;;;;;;;1.90;1.70;;;;;;;;;;5108320;28;20621;-46
2021/08/02 11:25:04;;;;;;;3.42;1.50;;;;;;;;;;5095178;28;20197;-46
2021/08/02 11:27:30;;;;;;;2.22;1.58;;;;;;;;;;5094965;28;20166;-46
2021/08/02 11:29:56;;;;;;;1.70;1.60;;;;;;;;;;5093575;28;20194;-46
2021/08/02 11:32:22;;;;;;;2.50;1.40;;;;;;;;;;5095495;28;20166;-46
2021/08/02 11:34:53;;;;;;;2.42;2.08;;;;;;;;;;5095175;28;20207;-46
2021/08/02 11:37:23;;;;;;;2.17;1.80;;;;;;;;;;5095930;28;20216;-46
2021/08/02 11:40:03;;;;;;;1.65;1.55;;;;;;;;;;5106559;28;20178;-46
2021/08/02 11:42:29;;;;;;;2.50;2.00;;;;;;;;;;5095356;28;20212;-46
2021/08/02 11:44:56;;;;;;;2.13;1.92;;;;;;;;;;5081096;28;20236;-46
2021/08/02 11:47:32;;;;;;;2.45;1.77;;;;;;;;;;5074085;28;20190;-45
2021/08/02 11:49:59;;;;;;;1.88;1.60;;;;;;;;;;5074840;28;20201;-46
2021/08/02 11:52:26;;;;;;;1.80;1.67;;;;;;;;;;5108937;28;20169;-46
2021/08/02 11:54:58;;;;;;;2.20;1.70;;;;;;;;;;5083732;28;20499;-46
2021/08/02 11:57:24;;;;;;;1.70;1.60;;;;;;;;;;5094468;28;20204;-46
2021/08/02 11:59:57;;;;;;;1.95;1.83;;;;;;;;;;5094594;28;20694;-46
2021/08/02 12:02:37;;;;;;;1.75;1.65;;;;;;;;;;5092051;28;20178;-46
2021/08/02 12:05:05;;;;;;;1.83;1.73;;;;;;;;;;5093154;28;20170;-46
2021/08/02 12:07:34;;;;;;;2.22;2.03;;;;;;;;;;5102330;28;20609;-46
2021/08/02 12:10:10;;;;;;;1.85;1.50;;;;;;;;;;5094239;28;20206;-46
2021/08/02 12:12:37;;;;;;;2.75;1.58;;;;;;;;;;5093234;28;20210;-46
2021/08/02 12:15:04;;;;;;;2.95;2.00;;;;;;;;;;5093126;28;20681;-46
2021/08/02 12:17:30;;;;;;;2.72;1.50;;;;;;;;;;5091961;28;20288;-45
2021/08/02 12:19:56;;;;;;;1.73;1.63;;;;;;;;;;5094401;28;20182;-46
2021/08/02 12:22:22;;;;;;;1.60;1.50;;;;;;;;;;5108121;28;20185;-46
2021/08/02 12:24:49;;;;;;;1.70;1.60;;;;;;;;;;5097143;28;20193;-46
2021/08/02 12:27:16;;;;;;;2.22;1.45;;;;;;;;;;5094010;28;20165;-46
2021/08/02 12:29:42;;;;;;;1.50;1.40;;;;;;;;;;5094514;28;20882;-46
2021/08/02 12:32:08;;;;;;;1.58;1.48;;;;;;;;;;5092917;28;20280;-45
2021/08/02 12:34:34;;;;;;;1.50;1.40;;;;;;;;;;5094644;28;20162;-45
2021/08/02 12:37:00;;;;;;;2.10;1.80;;;;;;;;;;5097172;28;20454;-45
2021/08/02 12:39:29;;;;;;;2.55;1.52;;;;;;;;;;5104500;28;20192;-45
2021/08/02 12:41:56;;;;;;;2.10;1.90;;;;;;;;;;5085019;28;20213;-45
2021/08/02 12:44:22;;;;;;;1.80;1.70;;;;;;;;;;5087299;28;20497;-45
2021/08/02 12:46:48;;;;;;;3.40;1.80;;;;;;;;;;5085273;28;20221;-46
2021/08/02 12:49:14;;;;;;;2.15;1.77;;;;;;;;;;5094751;28;20217;-46
2021/08/02 12:51:40;;;;;;;2.00;1.80;;;;;;;;;;5101351;28;20181;-46
2021/08/02 12:54:06;;;;;;;2.20;1.85;;;;;;;;;;5110564;28;20601;-46
2021/08/02 12:56:32;;;;;;;2.50;1.90;;;;;;;;;;5098492;28;20162;-46
2021/08/02 12:58:58;;;;;;;1.60;1.50;;;;;;;;;;5088707;28;20185;-45
2021/08/02 13:01:24;;;;;;;2.42;1.70;;;;;;;;;;5077890;28;20162;-46
2021/08/02 13:03:50;;;;;;;1.92;1.42;;;;;;;;;;5097975;28;20174;-46
2021/08/02 13:06:18;;;;;;;2.75;1.63;;;;;;;;;;5110846;28;20496;-47
2021/08/02 13:08:44;;;;;;;2.92;1.58;;;;;;;;;;5107201;28;20448;-45
2021/08/02 13:11:10;;;;;;;1.65;1.50;;;;;;;;;;5091040;28;20174;-46
2021/08/02 13:13:37;;;;;;;1.75;1.50;;;;;;;;;;5089830;28;20232;-46
2021/08/02 13:16:02;;;;;;;2.75;1.55;;;;;;;;;;5077759;28;20165;-45
2021/08/02 13:18:28;;;;;;;3.08;1.27;;;;;;;;;;5084644;28;20483;-46
2021/08/02 13:20:55;;;;;;;2.00;1.80;;;;;;;;;;5080906;28;20261;-46
2021/08/02 13:28:35;;;;;;;3.17;1.50;;;;;;;;;;5092391;28;20479;-46
2021/08/02 13:31:01;;;;;;;3.33;1.85;;;;;;;;;;5082569;28;20210;-46
2021/08/02 13:33:27;;;;;;;3.05;1.70;;;;;;;;;;5093866;28;20177;-46
2021/08/02 13:35:53;;;;;;;4.10;1.83;;;;;;;;;;5096992;28;20485;-45
2021/08/02 13:38:19;;;;;;;2.28;1.80;;;;;;;;;;5102933;28;20196;-46
2021/08/02 13:40:45;;;;;;;1.92;1.70;;;;;;;;;;5103436;28;20250;-45
2021/08/02 13:43:10;;;;;;;2.75;1.30;;;;;;;;;;5089997;28;20209;-46
2021/08/02 13:45:40;;;;;;;1.75;1.65;;;;;;;;;;5096014;28;20188;-46
2021/08/02 13:48:07;;;;;;;4.50;1.80;;;;;;;;;;5090408;28;20238;-46
2021/08/02 13:50:34;;;;;;;1.65;1.55;;;;;;;;;;5092802;28;20439;-46
2021/08/02 13:52:59;;;;;;;3.42;1.63;;;;;;;;;;5096109;28;20184;-46
2021/08/02 13:55:30;;;;;;;1.90;1.63;;;;;;;;;;5094044;28;20182;-46
2021/08/02 13:57:57;;;;;;;4.18;2.13;;;;;;;;;;5094571;28;20248;-46
2021/08/02 14:00:23;;;;;;;2.85;2.00;;;;;;;;;;5093338;28;20185;-46
2021/08/02 14:02:49;;;;;;;2.80;1.63;;;;;;;;;;5096702;28;20190;-46
2021/08/02 14:05:15;;;;;;;2.25;1.90;;;;;;;;;;5094376;28;20185;-46
2021/08/02 14:07:41;;;;;;;2.97;2.20;;;;;;;;;;5092308;28;20229;-46
2021/08/02 14:10:07;;;;;;;1.88;1.77;;;;;;;;;;5096599;28;20206;-45
2021/08/02 14:12:35;;;;;;;2.67;2.00;;;;;;;;;;5096728;28;20176;-46
2021/08/02 14:15:05;;;;;;;4.35;1.75;;;;;;;;;;5094893;28;20552;-46
2021/08/02 14:17:35;;;;;;;2.50;1.95;;;;;;;;;;5113060;28;20560;-46
2021/08/02 14:20:01;;;;;;;1.95;1.73;;;;;;;;;;5117073;28;20563;-46
2021/08/02 14:22:27;;;;;;;2.80;1.73;;;;;;;;;;5115321;28;20177;-46
2021/08/02 14:24:54;;;;;;;1.80;1.63;;;;;;;;;;5098686;28;20197;-46
2021/08/02 14:27:22;;;;;;;2.28;1.90;;;;;;;;;;5096145;28;20177;-46
2021/08/02 14:29:49;;;;;;;2.30;1.70;;;;;;;;;;5096329;28;20181;-45
2021/08/02 14:32:15;;;;;;;1.80;1.70;;;;;;;;;;5097179;28;20253;-45
2021/08/02 14:34:41;;;;;;;2.25;1.92;;;;;;;;;;5093183;28;20191;-45
2021/08/02 14:37:07;;;;;;;2.55;1.88;;;;;;;;;;5075683;28;20159;-46
2021/08/02 14:39:39;;;;;;;2.70;1.73;;;;;;;;;;5108286;28;20178;-46
2021/08/02 14:42:06;;;;;;;2.90;1.73;;;;;;;;;;5091101;28;20186;-46
2021/08/02 14:44:42;;;;;;;1.90;1.80;;;;;;;;;;5081796;28;20558;-46
2021/08/02 14:47:09;;;;;;;2.47;1.63;;;;;;;;;;5077923;28;20186;-46